Wrightsville, Ohio
Current Conditions -  °F | °C
As of 1:15 PM on Tuesday 21 Oct 2014 (Local Time) from KFGX Reporting Station
Overcast Overcast  
Wind Chill: 12°   Ceiling: 5000
Heat Index: 12°   Visibility: 10mi
Dew Point:   Wind: 8mph
Humidity: 55%   Direction: 320°NW
Pressure: 30.03"   Gusts: 20mph
Location:  38.7042°N, 83.6081°W
Report Text: KFGX 211715Z AUTO 32007G17KT 10SM SCT043 OVC050 12/03 A3003 RMK AO2 T01200031
Loading
Personal Weather Stations






























Interactive Weather Map
Tropical Storm Tracking
New forecast layout! Learn more

10-Day Weather Forecast

Advertisements
Track Severe Weather on mobile